Unlu-5 — TCON5 — position and weather

sailwx.info

Track history (hours):
 
Tides and Currents Weather Stations Pressure Air Temp Water Temp Dewpoint Dewpoint Depression Visibility Wind Speed Wind Dir Waves Ship Positions

Unlu-5

Last reported at 2016-Dec-10 07:06 UTC. Time now 2016-Dec-11 06:05 UTC.
Position N 38°11' E 012°20'.

Length 99 m; draft 3.6 m.

Type: Ship. MMSI: 271000854.

Date/timePositionNaut miles runAvg speedWind from/ knotsBaromVisibWave heightAir tempDewpointWater temp
2016-Dec-10 07:06N 38°11' E 012°20'16 9.7
2016-Dec-10 05:24N 38°13' E 012°41'7 8.8
2016-Dec-10 04:33N 38°14' E 012°50'9 8.7
2016-Dec-10 03:33N 38°15' E 013°01'9 9.0
2016-Dec-10 02:34N 38°16' E 013°13'9 8.7
2016-Dec-10 01:33N 38°16' E 013°24'9 8.6
2016-Dec-10 00:34N 38°12' E 013°33'9 8.5
2016-Dec-09 23:33N 38°06' E 013°41'7 0.7
2016-Dec-09 14:06N 37°59' E 013°42'0 0.0
2016-Dec-09 13:33N 37°59' E 013°42'0 0.0
2016-Dec-09 12:30N 37°59' E 013°42'0 0.0
2016-Dec-09 11:33N 37°59' E 013°42'0 0.0
2016-Dec-09 10:27N 37°59' E 013°42'0 0.0
2016-Dec-09 09:33N 37°59' E 013°42'0 0.0
2016-Dec-09 08:30N 37°59' E 013°42'0 0.0
2016-Dec-08 20:15N 37°59' E 013°42'0 0.0
2016-Dec-08 19:33N 37°59' E 013°42'0 0.0
2016-Dec-08 16:09N 37°59' E 013°42'0 0.0
2016-Dec-08 15:33N 37°59' E 013°42'0 0.0
2016-Dec-08 14:33N 37°59' E 013°42'0 0.0
2016-Dec-08 13:33N 37°59' E 013°42'0 0.0
2016-Dec-08 12:30N 37°59' E 013°42'0 0.0
2016-Dec-08 11:27N 37°59' E 013°42'0 0.0
2016-Dec-08 10:27N 37°59' E 013°42'0 0.0
2016-Dec-08 09:33N 37°59' E 013°42'0 0.0
2016-Dec-08 08:24N 37°59' E 013°42'0 0.0
2016-Dec-08 07:33N 37°59' E 013°42'0 0.0
2016-Dec-08 06:33N 37°59' E 013°42'0 0.0
2016-Dec-08 05:33N 37°59' E 013°42'0 0.0
2016-Dec-08 04:33N 37°59' E 013°42'0 0.0
2016-Dec-08 03:09N 37°59' E 013°42'0 0.0
2016-Dec-08 02:21N 37°59' E 013°42'0 0.0
2016-Dec-08 01:33N 37°59' E 013°42'0 0.0
2016-Dec-08 00:33N 37°59' E 013°42'0 0.0
2016-Dec-07 23:27N 37°59' E 013°42'0 0.0
2016-Dec-07 22:33N 37°59' E 013°42'0 0.0
2016-Dec-07 21:27N 37°59' E 013°42'0 0.0
2016-Dec-06 14:25N 37°59' E 013°42'0 0.0
2016-Dec-06 08:16N 37°59' E 013°42'0 0.0
2016-Dec-05 07:33N 37°59' E 013°43'2 1.8
2016-Dec-05 06:28N 38°01' E 013°41'0 0.0
2016-Dec-05 03:13N 38°01' E 013°41'0 0.0
2016-Dec-05 02:16N 38°01' E 013°41'0 0.0
2016-Dec-05 01:25N 38°01' E 013°41'0 0.0
2016-Dec-04 23:13N 38°01' E 013°41'0 0.0
2016-Dec-04 20:04N 38°01' E 013°42'0 0.0
2016-Dec-04 17:28N 38°01' E 013°41'0 0.0
2016-Dec-04 16:31N 38°01' E 013°41'0 0.0
2016-Dec-04 15:31N 38°01' E 013°41'0 0.0
2016-Dec-04 14:31N 38°01' E 013°41'0 0.0
2016-Dec-04 13:28N 38°01' E 013°41'0 0.0
2016-Dec-04 12:31N 38°01' E 013°41'0 0.0
2016-Dec-04 11:28N 38°01' E 013°41'0 0.1
2016-Dec-04 10:31N 38°01' E 013°41'0 0.0
2016-Dec-04 09:22N 38°01' E 013°41'0 0.0
2016-Dec-04 08:28N 38°01' E 013°41'0 0.0
2016-Dec-04 07:31N 38°01' E 013°42'0 0.0
2016-Dec-04 06:32N 38°01' E 013°42'3 2.7
2016-Dec-04 05:33N 38°03' E 013°43'5 5.3
2016-Dec-04 04:33N 38°07' E 013°48'7 6.9
2016-Dec-04 03:33N 38°08' E 013°57'8 6.9
2016-Dec-04 02:28N 38°10' E 014°06'27 5.4
2016-Dec-03 21:30N 38°13' E 014°40'6 6.4
2016-Dec-03 20:33N 38°14' E 014°47'6 6.4
2016-Dec-03 19:33N 38°15' E 014°55'7 6.7
2016-Dec-03 18:33N 38°17' E 015°04'7 7.0
2016-Dec-03 17:33N 38°19' E 015°12'7 7.2
2016-Dec-03 16:33N 38°20' E 015°21'8 7.9
2016-Dec-03 15:34N 38°22' E 015°31'7 7.2
2016-Dec-03 14:33N 38°21' E 015°40'6 5.6
2016-Dec-03 13:33N 38°15' E 015°40'6 6.4
2016-Dec-03 12:33N 38°09' E 015°37'8 8.0
2016-Dec-03 11:33N 38°01' E 015°37'7 7.4
2016-Dec-03 10:33N 37°54' E 015°40'8 8.0
2016-Dec-03 09:33N 37°48' E 015°46'8 8.0
2016-Dec-03 08:30N 37°42' E 015°53'8 7.9
2016-Dec-03 07:31N 37°36' E 015°60'11 7.8
2016-Dec-03 06:04N 37°28' E 016°10'  
Track history (hours):
 
Tides and Currents Weather Stations Pressure Air Temp Water Temp Dewpoint Dewpoint Depression Visibility Wind Speed Wind Dir Waves Ship Positions

Unlu-5

Last reported at 2016-Dec-10 07:06 UTC. Time now 2016-Dec-11 06:05 UTC.
Position N 38°11' E 012°20'.

Length 99 m; draft 3.6 m.

Type: Ship. MMSI: 271000854.

Date/timePositionNaut miles runAvg speedWind from/ knotsBaromVisibWave heightAir tempDewpointWater temp
2016-Dec-10 07:06N 38°11' E 012°20'16 9.7
2016-Dec-10 05:24N 38°13' E 012°41'7 8.8
2016-Dec-10 04:33N 38°14' E 012°50'9 8.7
2016-Dec-10 03:33N 38°15' E 013°01'9 9.0
2016-Dec-10 02:34N 38°16' E 013°13'9 8.7
2016-Dec-10 01:33N 38°16' E 013°24'9 8.6
2016-Dec-10 00:34N 38°12' E 013°33'9 8.5
2016-Dec-09 23:33N 38°06' E 013°41'7 0.7
2016-Dec-09 14:06N 37°59' E 013°42'0 0.0
2016-Dec-09 13:33N 37°59' E 013°42'0 0.0
2016-Dec-09 12:30N 37°59' E 013°42'0 0.0
2016-Dec-09 11:33N 37°59' E 013°42'0 0.0
2016-Dec-09 10:27N 37°59' E 013°42'0 0.0
2016-Dec-09 09:33N 37°59' E 013°42'0 0.0
2016-Dec-09 08:30N 37°59' E 013°42'0 0.0
2016-Dec-08 20:15N 37°59' E 013°42'0 0.0
2016-Dec-08 19:33N 37°59' E 013°42'0 0.0
2016-Dec-08 16:09N 37°59' E 013°42'0 0.0
2016-Dec-08 15:33N 37°59' E 013°42'0 0.0
2016-Dec-08 14:33N 37°59' E 013°42'0 0.0
2016-Dec-08 13:33N 37°59' E 013°42'0 0.0
2016-Dec-08 12:30N 37°59' E 013°42'0 0.0
2016-Dec-08 11:27N 37°59' E 013°42'0 0.0
2016-Dec-08 10:27N 37°59' E 013°42'0 0.0
2016-Dec-08 09:33N 37°59' E 013°42'0 0.0
2016-Dec-08 08:24N 37°59' E 013°42'0 0.0
2016-Dec-08 07:33N 37°59' E 013°42'0 0.0
2016-Dec-08 06:33N 37°59' E 013°42'0 0.0
2016-Dec-08 05:33N 37°59' E 013°42'0 0.0
2016-Dec-08 04:33N 37°59' E 013°42'0 0.0
2016-Dec-08 03:09N 37°59' E 013°42'0 0.0
2016-Dec-08 02:21N 37°59' E 013°42'0 0.0
2016-Dec-08 01:33N 37°59' E 013°42'0 0.0
2016-Dec-08 00:33N 37°59' E 013°42'0 0.0
2016-Dec-07 23:27N 37°59' E 013°42'0 0.0
2016-Dec-07 22:33N 37°59' E 013°42'0 0.0
2016-Dec-07 21:27N 37°59' E 013°42'0 0.0
2016-Dec-06 14:25N 37°59' E 013°42'0 0.0
2016-Dec-06 08:16N 37°59' E 013°42'0 0.0
2016-Dec-05 07:33N 37°59' E 013°43'2 1.8
2016-Dec-05 06:28N 38°01' E 013°41'0 0.0
2016-Dec-05 03:13N 38°01' E 013°41'0 0.0
2016-Dec-05 02:16N 38°01' E 013°41'0 0.0
2016-Dec-05 01:25N 38°01' E 013°41'0 0.0
2016-Dec-04 23:13N 38°01' E 013°41'0 0.0
2016-Dec-04 20:04N 38°01' E 013°42'0 0.0
2016-Dec-04 17:28N 38°01' E 013°41'0 0.0
2016-Dec-04 16:31N 38°01' E 013°41'0 0.0
2016-Dec-04 15:31N 38°01' E 013°41'0 0.0
2016-Dec-04 14:31N 38°01' E 013°41'0 0.0
2016-Dec-04 13:28N 38°01' E 013°41'0 0.0
2016-Dec-04 12:31N 38°01' E 013°41'0 0.0
2016-Dec-04 11:28N 38°01' E 013°41'0 0.1
2016-Dec-04 10:31N 38°01' E 013°41'0 0.0
2016-Dec-04 09:22N 38°01' E 013°41'0 0.0
2016-Dec-04 08:28N 38°01' E 013°41'0 0.0
2016-Dec-04 07:31N 38°01' E 013°42'0 0.0
2016-Dec-04 06:32N 38°01' E 013°42'3 2.7
2016-Dec-04 05:33N 38°03' E 013°43'5 5.3
2016-Dec-04 04:33N 38°07' E 013°48'7 6.9
2016-Dec-04 03:33N 38°08' E 013°57'8 6.9
2016-Dec-04 02:28N 38°10' E 014°06'27 5.4
2016-Dec-03 21:30N 38°13' E 014°40'6 6.4
2016-Dec-03 20:33N 38°14' E 014°47'6 6.4
2016-Dec-03 19:33N 38°15' E 014°55'7 6.7
2016-Dec-03 18:33N 38°17' E 015°04'7 7.0
2016-Dec-03 17:33N 38°19' E 015°12'7 7.2
2016-Dec-03 16:33N 38°20' E 015°21'8 7.9
2016-Dec-03 15:34N 38°22' E 015°31'7 7.2
2016-Dec-03 14:33N 38°21' E 015°40'6 5.6
2016-Dec-03 13:33N 38°15' E 015°40'6 6.4
2016-Dec-03 12:33N 38°09' E 015°37'8 8.0
2016-Dec-03 11:33N 38°01' E 015°37'7 7.4
2016-Dec-03 10:33N 37°54' E 015°40'8 8.0
2016-Dec-03 09:33N 37°48' E 015°46'8 8.0
2016-Dec-03 08:30N 37°42' E 015°53'8 7.9
2016-Dec-03 07:31N 37°36' E 015°60'11 7.8
2016-Dec-03 06:04N 37°28' E 016°10'  

Dump ship's entire track history